Time;durP1;ratioP1;P1;durP2;ratioP2;P2;SDS_P1;SDS_P2;PMS_P1;PMS_P2;Temp;Humidity;BMP_temperature;BMP_pressure;BME280_temperature;BME280_humidity;BME280_pressure;Samples;Min_cycle;Max_cycle;Signal;HPM_P1;HPM_P2
2021/03/01 00:01:02;;;;;;;113.43;8.02;;;7.80;72.40;;;;;;5077170;28;20032;-76
2021/03/01 00:03:28;;;;;;;51.60;6.10;;;7.80;72.40;;;;;;5084160;28;20365;-76
2021/03/01 00:05:54;;;;;;;121.80;9.85;;;7.80;72.40;;;;;;5073954;28;20090;-77
2021/03/01 00:08:20;;;;;;;108.82;8.52;;;7.70;72.40;;;;;;5073213;28;20028;-76
2021/03/01 00:10:45;;;;;;;200.95;9.68;;;7.80;72.60;;;;;;5073964;28;20063;-76
2021/03/01 00:13:14;;;;;;;115.35;8.48;;;7.70;72.70;;;;;;5073670;28;20078;-76
2021/03/01 00:15:40;;;;;;;36.72;5.90;;;7.70;72.90;;;;;;5072989;28;20042;-76
2021/03/01 00:18:06;;;;;;;126.68;8.63;;;7.70;72.90;;;;;;5077727;28;20028;-76
2021/03/01 00:20:32;;;;;;;144.57;9.90;;;7.70;73.00;;;;;;5083702;28;20044;-76
2021/03/01 00:22:58;;;;;;;180.63;11.13;;;7.70;73.20;;;;;;5072913;28;20033;-77
2021/03/01 00:25:23;;;;;;;119.35;9.30;;;7.70;73.30;;;;;;5081972;28;20038;-76
2021/03/01 00:27:49;;;;;;;88.95;8.95;;;7.70;73.40;;;;;;5061009;28;20040;-76
2021/03/01 00:30:15;;;;;;;131.13;9.68;;;7.70;73.60;;;;;;5072872;28;20029;-76
2021/03/01 00:32:41;;;;;;;153.15;11.52;;;7.70;73.70;;;;;;5073132;28;20094;-76
2021/03/01 00:35:08;;;;;;;133.65;9.57;;;7.70;73.80;;;;;;5073395;28;20480;-76
2021/03/01 00:37:34;;;;;;;146.45;10.50;;;7.70;74.00;;;;;;5072846;28;20033;-76
2021/03/01 00:40:00;;;;;;;37.03;6.45;;;7.70;74.20;;;;;;5073306;28;20037;-76
2021/03/01 00:42:29;;;;;;;120.10;10.13;;;7.60;74.30;;;;;;5073433;28;20522;-76
2021/03/01 00:44:54;;;;;;;131.80;7.90;;;7.60;74.50;;;;;;5072404;28;20033;-76
2021/03/01 00:47:20;;;;;;;111.35;9.13;;;7.60;74.50;;;;;;5073134;28;20430;-76
2021/03/01 00:49:46;;;;;;;139.93;9.45;;;7.60;74.70;;;;;;5073369;28;20028;-76
2021/03/01 00:52:11;;;;;;;91.90;9.05;;;7.60;74.90;;;;;;5085620;28;20480;-76
2021/03/01 00:54:37;;;;;;;171.52;9.82;;;7.60;75.00;;;;;;5072850;28;20519;-76
2021/03/01 00:57:07;;;;;;;89.88;7.72;;;7.60;75.20;;;;;;5072728;28;20048;-76
2021/03/01 00:59:33;;;;;;;115.07;8.45;;;7.60;75.40;;;;;;5053980;28;20040;-76
2021/03/01 01:02:04;;;;;;;145.20;8.05;;;7.60;75.50;;;;;;5067632;28;20028;-76
2021/03/01 01:04:31;;;;;;;154.45;8.35;;;7.60;75.60;;;;;;5055437;28;20476;-76
2021/03/01 01:06:57;;;;;;;70.40;5.90;;;7.60;75.70;;;;;;5061595;28;20093;-76
2021/03/01 01:09:23;;;;;;;159.55;7.80;;;7.60;75.70;;;;;;5092542;28;20479;-76
2021/03/01 01:11:49;;;;;;;108.43;6.22;;;7.60;75.80;;;;;;5091915;28;20020;-76
2021/03/01 01:14:14;;;;;;;86.03;6.35;;;7.60;75.90;;;;;;5092559;28;20060;-76
2021/03/01 01:16:40;;;;;;;26.13;4.72;;;7.60;76.00;;;;;;5093220;28;20031;-76
2021/03/01 01:19:07;;;;;;;118.05;9.18;;;7.60;76.10;;;;;;5091284;28;20044;-76
2021/03/01 01:21:32;;;;;;;147.82;9.88;;;7.60;76.20;;;;;;5093045;28;20032;-76
2021/03/01 01:23:58;;;;;;;142.48;8.60;;;7.60;76.20;;;;;;5092471;28;20031;-76
2021/03/01 01:26:24;;;;;;;72.47;6.50;;;7.60;76.30;;;;;;5092049;28;20080;-77
2021/03/01 01:28:49;;;;;;;98.47;10.10;;;7.60;76.30;;;;;;5091434;28;20059;-76
2021/03/01 01:31:15;;;;;;;173.32;13.57;;;7.60;76.50;;;;;;5093020;28;20564;-76
2021/03/01 01:33:43;;;;;;;143.45;9.05;;;7.60;76.50;;;;;;5092238;28;20084;-76
2021/03/01 01:36:10;;;;;;;212.50;12.90;;;7.60;76.60;;;;;;5092628;28;20036;-76
2021/03/01 01:38:35;;;;;;;249.27;13.25;;;7.50;76.50;;;;;;5092778;28;20031;-77
2021/03/01 01:41:01;;;;;;;128.82;11.13;;;7.60;76.70;;;;;;5091691;28;20040;-76
2021/03/01 01:43:27;;;;;;;155.57;11.20;;;7.50;76.70;;;;;;5092496;28;20025;-76
2021/03/01 01:45:52;;;;;;;120.20;7.60;;;7.50;76.80;;;;;;5092502;28;20034;-76
2021/03/01 01:48:18;;;;;;;140.07;7.13;;;7.60;76.90;;;;;;5092042;28;20060;-77
2021/03/01 01:50:44;;;;;;;250.50;10.65;;;7.50;76.70;;;;;;5092609;28;20514;-76
2021/03/01 01:53:10;;;;;;;161.18;6.60;;;7.60;76.80;;;;;;5092431;28;20114;-77
2021/03/01 01:55:36;;;;;;;119.10;5.97;;;7.50;76.80;;;;;;5091724;28;20140;-77
2021/03/01 01:58:01;;;;;;;154.25;7.05;;;7.50;76.80;;;;;;5092371;28;20034;-76
2021/03/01 02:00:45;;;;;;;143.65;6.45;;;7.50;76.80;;;;;;5092763;28;20032;-76
2021/03/01 02:03:44;;;;;;;254.07;8.98;;;7.50;76.90;;;;;;5092302;28;20028;-76
2021/03/01 02:06:36;;;;;;;184.30;5.50;;;7.50;76.90;;;;;;5092458;28;20111;-76
2021/03/01 02:09:09;;;;;;;156.73;5.78;;;7.50;76.90;;;;;;5081255;28;20111;-76
2021/03/01 02:11:56;;;;;;;121.63;4.40;;;7.50;77.00;;;;;;5092479;28;20067;-76
2021/03/01 02:14:33;;;;;;;153.93;5.70;;;7.40;77.00;;;;;;5092325;28;20059;-76
2021/03/01 02:16:59;;;;;;;85.78;4.25;;;7.40;77.00;;;;;;5094887;28;20475;-76
2021/03/01 02:19:26;;;;;;;133.25;4.55;;;7.40;76.90;;;;;;5096187;28;20054;-76
2021/03/01 02:21:52;;;;;;;163.25;5.30;;;7.50;77.00;;;;;;5095461;28;20078;-76
2021/03/01 02:24:47;;;;;;;115.82;4.07;;;7.50;77.00;;;;;;5096262;28;20055;-76
2021/03/01 02:27:20;;;;;;;133.95;4.72;;;7.50;77.00;;;;;;5092143;28;20043;-76
2021/03/01 02:29:47;;;;;;;45.58;3.65;;;7.50;77.00;;;;;;5095490;28;20040;-76
2021/03/01 02:32:14;;;;;;;180.77;5.40;;;7.50;77.00;;;;;;5095845;28;20039;-76
2021/03/01 02:34:40;;;;;;;81.95;4.40;;;7.50;77.00;;;;;;5096006;28;20387;-76
2021/03/01 02:37:13;;;;;;;125.10;4.38;;;7.50;77.00;;;;;;5095124;28;20063;-76
2021/03/01 02:39:43;;;;;;;135.02;5.50;;;7.50;77.00;;;;;;5095711;28;20050;-76
2021/03/01 02:42:13;;;;;;;56.45;4.40;;;7.50;76.90;;;;;;5095642;28;20035;-76
2021/03/01 02:44:41;;;;;;;58.88;3.45;;;7.60;76.90;;;;;;5094559;28;20051;-76
2021/03/01 02:47:07;;;;;;;102.32;4.20;;;7.60;76.90;;;;;;5096071;28;20032;-76
2021/03/01 02:49:35;;;;;;;77.13;4.80;;;7.60;76.80;;;;;;5095654;28;20536;-76
2021/03/01 02:52:08;;;;;;;83.82;4.38;;;7.60;77.50;;;;;;5095025;28;20025;-76
2021/03/01 02:54:35;;;;;;;104.15;5.38;;;7.60;76.90;;;;;;5095408;28;20498;-76
2021/03/01 02:57:02;;;;;;;131.20;5.75;;;7.70;76.90;;;;;;5094605;28;20487;-77
2021/03/01 02:59:29;;;;;;;139.77;6.40;;;7.60;76.70;;;;;;5095494;28;20024;-77
2021/03/01 03:01:55;;;;;;;64.45;4.15;;;7.60;76.60;;;;;;5095417;28;20372;-75
2021/03/01 03:04:22;;;;;;;60.17;4.55;;;7.60;76.70;;;;;;5094613;28;20031;-77
2021/03/01 03:06:49;;;;;;;53.80;3.80;;;7.60;76.60;;;;;;5094748;28;20101;-77
2021/03/01 03:09:15;;;;;;;44.58;3.65;;;7.60;76.60;;;;;;5094864;28;20032;-75
2021/03/01 03:11:43;;;;;;;37.45;3.20;;;7.60;76.70;;;;;;5093453;28;20020;-76
2021/03/01 03:14:12;;;;;;;60.92;3.03;;;7.60;76.60;;;;;;5094883;28;20127;-75
2021/03/01 03:16:38;;;;;;;59.42;3.65;;;7.60;76.50;;;;;;5094802;28;20085;-69
2021/03/01 03:19:05;;;;;;;17.80;2.97;;;7.60;76.40;;;;;;5094278;28;20107;-76
2021/03/01 03:21:32;;;;;;;51.85;3.60;;;7.60;76.40;;;;;;5094395;28;20070;-76
2021/03/01 03:23:58;;;;;;;27.08;3.10;;;7.60;76.30;;;;;;5094257;28;20019;-76
2021/03/01 03:26:23;;;;;;;25.58;3.22;;;7.60;76.30;;;;;;5093248;28;20036;-76
2021/03/01 03:28:49;;;;;;;8.00;2.80;;;7.60;76.30;;;;;;5093683;28;20016;-76
2021/03/01 03:31:15;;;;;;;41.63;3.38;;;7.70;76.30;;;;;;5094567;28;20111;-76
2021/03/01 03:33:42;;;;;;;21.08;2.53;;;7.60;76.20;;;;;;5092762;28;20057;-76
2021/03/01 03:36:09;;;;;;;66.60;4.15;;;7.60;76.20;;;;;;5092204;28;20068;-77
2021/03/01 03:38:40;;;;;;;37.95;3.10;;;7.60;76.10;;;;;;5092911;28;20028;-77
2021/03/01 03:41:08;;;;;;;48.67;3.55;;;7.60;76.10;;;;;;5092438;28;20030;-76
2021/03/01 03:43:34;;;;;;;36.85;3.42;;;7.60;76.10;;;;;;5094069;28;20047;-76
2021/03/01 03:46:02;;;;;;;23.38;3.55;;;7.60;76.10;;;;;;5093741;28;20028;-77
2021/03/01 03:48:28;;;;;;;11.27;3.38;;;7.60;76.00;;;;;;5093366;28;20032;-77
2021/03/01 03:51:00;;;;;;;15.90;3.33;;;7.60;76.00;;;;;;5094072;28;20020;-77
2021/03/01 03:53:33;;;;;;;5.53;3.05;;;7.60;76.10;;;;;;5093493;28;20166;-76
2021/03/01 03:56:01;;;;;;;5.82;3.35;;;7.50;76.00;;;;;;5093637;28;20423;-77
2021/03/01 03:58:36;;;;;;;5.85;3.45;;;7.60;76.10;;;;;;5091625;28;20020;-77
2021/03/01 04:01:03;;;;;;;23.40;4.05;;;7.50;76.20;;;;;;5089056;28;20068;-76
2021/03/01 04:03:32;;;;;;;9.82;3.60;;;7.60;76.30;;;;;;5092557;28;20031;-77
2021/03/01 04:06:00;;;;;;;15.85;4.05;;;7.60;76.40;;;;;;5091595;28;20095;-75
2021/03/01 04:08:29;;;;;;;14.90;4.15;;;7.60;76.40;;;;;;5092449;28;20024;-77
2021/03/01 04:10:58;;;;;;;18.58;4.35;;;7.50;76.40;;;;;;5093321;28;20467;-76
2021/03/01 04:13:28;;;;;;;23.75;5.68;;;7.50;76.40;;;;;;5090850;28;20103;-77
2021/03/01 04:15:55;;;;;;;33.95;6.03;;;7.50;76.50;;;;;;5090624;28;20108;-77
2021/03/01 04:18:37;;;;;;;29.30;6.70;;;7.50;76.60;;;;;;5093837;28;20024;-77
2021/03/01 04:21:06;;;;;;;29.70;6.25;;;7.40;76.80;;;;;;5093929;28;20016;-76
2021/03/01 04:23:34;;;;;;;17.95;5.97;;;7.40;76.80;;;;;;5093104;28;20042;-76
2021/03/01 04:26:01;;;;;;;13.75;6.65;;;7.40;76.90;;;;;;5093617;28;20028;-76
2021/03/01 04:28:29;;;;;;;14.20;5.82;;;7.40;77.10;;;;;;5092753;28;20441;-76
2021/03/01 04:31:00;;;;;;;13.77;6.13;;;7.30;77.20;;;;;;5093682;28;20050;-76
2021/03/01 04:33:27;;;;;;;13.15;5.95;;;7.30;77.40;;;;;;5093565;28;20574;-77
2021/03/01 04:35:55;;;;;;;12.73;6.43;;;7.20;77.40;;;;;;5092529;28;20061;-76
2021/03/01 04:38:21;;;;;;;16.17;7.80;;;7.20;77.50;;;;;;5075076;28;20036;-76
2021/03/01 04:40:49;;;;;;;17.67;7.50;;;7.20;77.70;;;;;;5093116;28;20036;-76
2021/03/01 04:43:15;;;;;;;16.50;7.13;;;7.20;77.80;;;;;;5092860;28;20051;-76
2021/03/01 04:45:44;;;;;;;17.35;7.47;;;7.20;77.80;;;;;;5093307;28;20028;-76
2021/03/01 04:48:10;;;;;;;15.93;7.20;;;7.30;78.00;;;;;;5093227;28;20172;-76
2021/03/01 04:50:40;;;;;;;16.05;7.47;;;7.30;78.00;;;;;;5092449;28;20028;-76
2021/03/01 04:53:06;;;;;;;15.85;7.80;;;7.20;78.10;;;;;;5093008;28;20039;-76
2021/03/01 04:55:35;;;;;;;18.27;8.07;;;7.20;78.00;;;;;;5074857;28;20052;-76
2021/03/01 04:58:01;;;;;;;17.83;8.52;;;7.30;78.10;;;;;;5092497;28;20032;-76
2021/03/01 05:00:28;;;;;;;15.82;8.25;;;7.20;78.10;;;;;;5093100;28;20032;-76
2021/03/01 05:02:55;;;;;;;23.13;9.52;;;7.30;78.20;;;;;;5090376;28;20056;-76
2021/03/01 05:05:21;;;;;;;21.58;8.98;;;7.20;78.20;;;;;;5092407;28;20063;-76
2021/03/01 05:07:47;;;;;;;18.83;8.48;;;7.20;78.30;;;;;;5092768;28;20475;-76
2021/03/01 05:10:14;;;;;;;19.20;8.88;;;7.20;78.30;;;;;;5093079;28;20375;-76
2021/03/01 05:12:39;;;;;;;20.08;9.35;;;7.30;78.40;;;;;;5092276;28;20032;-76
2021/03/01 05:15:06;;;;;;;18.73;8.80;;;7.20;78.30;;;;;;5093059;28;20031;-76
2021/03/01 05:17:31;;;;;;;21.20;9.82;;;7.30;78.50;;;;;;5092638;28;20031;-75
2021/03/01 05:19:57;;;;;;;22.92;10.38;;;7.30;78.60;;;;;;5074396;28;20032;-76
2021/03/01 05:22:23;;;;;;;21.90;9.75;;;7.20;78.50;;;;;;5092755;28;20036;-76
2021/03/01 05:24:48;;;;;;;25.73;11.10;;;7.30;78.60;;;;;;5092353;28;20032;-77
2021/03/01 05:27:14;;;;;;;20.92;9.15;;;7.30;78.60;;;;;;5092823;28;20028;-76
2021/03/01 05:29:46;;;;;;;26.58;10.52;;;7.30;78.70;;;;;;5092946;28;20036;-77
2021/03/01 05:32:12;;;;;;;20.10;9.75;;;7.40;78.70;;;;;;5091997;28;20153;-76
2021/03/01 05:34:37;;;;;;;23.25;10.30;;;7.40;78.70;;;;;;5092667;28;20496;-77
2021/03/01 05:37:03;;;;;;;21.40;9.93;;;7.40;78.70;;;;;;5092775;28;20032;-77
2021/03/01 05:39:28;;;;;;;19.30;9.50;;;7.40;78.70;;;;;;5092408;28;20024;-76
2021/03/01 05:41:55;;;;;;;21.60;9.60;;;7.40;78.60;;;;;;5092876;28;20103;-77
2021/03/01 05:44:20;;;;;;;23.35;9.95;;;7.50;78.70;;;;;;5092547;28;20035;-77
2021/03/01 05:46:48;;;;;;;23.42;10.45;;;7.50;78.60;;;;;;5091968;28;20044;-76
2021/03/01 05:49:14;;;;;;;20.52;9.07;;;7.50;78.70;;;;;;5092470;28;20032;-76
2021/03/01 05:51:48;;;;;;;23.58;10.70;;;7.50;78.70;;;;;;5095837;28;20109;-76
2021/03/01 05:54:15;;;;;;;;;;;7.50;78.70;;;;;;5096725;28;20047;-76
2021/03/01 05:56:41;;;;;;;23.10;9.52;;;7.60;78.60;;;;;;5096614;28;19942;-77
2021/03/01 05:59:08;;;;;;;26.10;9.57;;;7.60;78.40;;;;;;5096426;28;20036;-77
2021/03/01 06:01:34;;;;;;;20.73;9.02;;;7.60;78.60;;;;;;5095782;28;20028;-77
2021/03/01 06:04:00;;;;;;;21.77;8.98;;;7.60;78.70;;;;;;5096540;28;20027;-77
2021/03/01 06:06:26;;;;;;;17.55;8.25;;;7.60;78.80;;;;;;5096561;28;20344;-77
2021/03/01 06:08:51;;;;;;;17.65;8.43;;;7.60;78.70;;;;;;5096007;28;20036;-77
2021/03/01 06:11:17;;;;;;;18.65;8.27;;;7.60;78.70;;;;;;5096192;28;20024;-76
2021/03/01 06:13:43;;;;;;;18.23;8.30;;;7.70;78.60;;;;;;5096613;28;20036;-77
2021/03/01 06:16:09;;;;;;;17.30;8.60;;;7.70;78.50;;;;;;5094552;28;20449;-79
2021/03/01 06:18:45;;;;;;;21.55;9.82;;;7.70;79.10;;;;;;5095809;28;20470;-76
2021/03/01 06:21:16;;;;;;;22.17;9.85;;;7.70;78.50;;;;;;5094824;28;20419;-80
2021/03/01 06:23:43;;;;;;;29.65;10.23;;;7.60;78.40;;;;;;5093124;28;20020;-76
2021/03/01 06:26:29;;;;;;;36.40;9.57;;;7.60;78.50;;;;;;5088809;28;20024;-76
2021/03/01 06:29:04;;;;;;;145.70;11.68;;;7.60;78.60;;;;;;5091274;28;20081;-70
2021/03/01 06:31:37;;;;;;;161.50;12.15;;;7.50;78.50;;;;;;5092544;28;20063;-78
2021/03/01 06:34:20;;;;;;;140.15;10.30;;;7.50;78.60;;;;;;5093495;28;20040;-77
2021/03/01 06:36:53;;;;;;;194.57;11.50;;;7.50;78.70;;;;;;5092232;28;20043;-77
2021/03/01 06:39:32;;;;;;;148.75;10.68;;;7.40;78.70;;;;;;5093508;28;20039;-76
2021/03/01 06:42:18;;;;;;;247.77;11.60;;;7.40;78.80;;;;;;5093269;28;20024;-76
2021/03/01 06:44:48;;;;;;;201.93;10.02;;;7.40;78.90;;;;;;5091556;28;20034;-77
2021/03/01 06:47:15;;;;;;;285.60;11.02;;;7.40;79.00;;;;;;5092995;28;20036;-74
2021/03/01 06:49:43;;;;;;;222.43;9.25;;;7.40;79.00;;;;;;5092573;28;20436;-78
2021/03/01 06:52:09;;;;;;;313.45;11.68;;;7.30;79.30;;;;;;5094956;28;20036;-77
2021/03/01 06:54:35;;;;;;;251.60;10.15;;;7.30;79.10;;;;;;5095589;28;20089;-77
2021/03/01 06:57:01;;;;;;;208.80;8.65;;;7.30;79.20;;;;;;5092509;28;20044;-73
2021/03/01 06:59:27;;;;;;;229.30;9.60;;;7.30;79.20;;;;;;5096380;28;20100;-77
2021/03/01 07:01:54;;;;;;;124.72;7.15;;;7.30;79.30;;;;;;5094607;28;20028;-73
2021/03/01 07:04:22;;;;;;;78.30;5.40;;;7.30;79.40;;;;;;5090893;28;20080;-76
2021/03/01 07:06:48;;;;;;;159.35;6.20;;;7.30;79.40;;;;;;5093874;28;20448;-77
2021/03/01 07:09:19;;;;;;;133.23;7.65;;;7.30;79.40;;;;;;5092963;28;20053;-77
2021/03/01 07:11:45;;;;;;;75.07;6.88;;;7.30;79.50;;;;;;5091601;28;20110;-77
2021/03/01 07:14:16;;;;;;;85.95;5.97;;;7.20;79.40;;;;;;5090384;28;20085;-76
2021/03/01 07:16:41;;;;;;;126.68;7.18;;;7.30;79.60;;;;;;5093020;28;20028;-78
2021/03/01 07:19:13;;;;;;;80.70;6.90;;;7.30;79.60;;;;;;5099238;28;20028;-75
2021/03/01 07:21:41;;;;;;;107.38;5.35;;;7.30;79.80;;;;;;5106254;28;20561;-76
2021/03/01 07:24:07;;;;;;;169.30;6.78;;;7.30;79.80;;;;;;5103448;28;20777;-78
2021/03/01 07:26:34;;;;;;;123.65;5.47;;;7.30;79.90;;;;;;5096845;28;20508;-77
2021/03/01 07:29:10;;;;;;;83.22;4.05;;;7.30;80.00;;;;;;5095878;28;20045;-78
2021/03/01 07:31:39;;;;;;;62.90;4.47;;;7.30;80.10;;;;;;5093365;28;20036;-77
2021/03/01 07:34:09;;;;;;;59.10;3.53;;;7.30;80.10;;;;;;5078906;28;20064;-77
2021/03/01 07:36:36;;;;;;;48.22;3.05;;;7.30;80.20;;;;;;5089049;28;20090;-76
2021/03/01 07:39:07;;;;;;;74.82;3.03;;;7.30;80.10;;;;;;5093259;28;20099;-76
2021/03/01 07:41:33;;;;;;;57.13;3.17;;;7.40;80.30;;;;;;5093872;28;20574;-76
2021/03/01 07:43:59;;;;;;;32.45;2.28;;;7.40;80.30;;;;;;5093458;28;20103;-77
2021/03/01 07:46:27;;;;;;;35.47;2.92;;;7.30;80.30;;;;;;5093476;28;20058;-77
2021/03/01 07:48:56;;;;;;;79.57;3.63;;;7.30;80.30;;;;;;5093622;28;20139;-76
2021/03/01 07:51:41;;;;;;;42.08;2.33;;;7.30;80.40;;;;;;5096657;28;20103;-76
2021/03/01 07:54:07;;;;;;;17.55;1.88;;;7.30;80.60;;;;;;5096180;28;20376;-76
2021/03/01 07:56:39;;;;;;;61.42;2.75;;;7.30;80.50;;;;;;5096773;28;20265;-77
2021/03/01 07:59:07;;;;;;;66.35;2.97;;;7.30;80.70;;;;;;5103921;28;20057;-77
2021/03/01 08:01:36;;;;;;;53.30;2.65;;;7.30;80.70;;;;;;5093459;28;20487;-77
2021/03/01 08:04:02;;;;;;;82.78;3.10;;;7.30;80.80;;;;;;5091691;28;20107;-77
2021/03/01 08:06:58;;;;;;;72.25;2.92;;;7.40;80.80;;;;;;5093260;28;20407;-77
2021/03/01 08:09:47;;;;;;;101.95;3.90;;;7.30;80.80;;;;;;5076388;28;20449;-77
2021/03/01 08:12:36;;;;;;;79.60;3.55;;;7.30;80.80;;;;;;5088838;28;20459;-74
2021/03/01 08:15:10;;;;;;;79.95;2.97;;;7.30;80.80;;;;;;5088257;28;20043;-78
2021/03/01 08:17:38;;;;;;;71.65;2.67;;;7.30;80.80;;;;;;5109606;28;20032;-70
2021/03/01 08:20:16;;;;;;;91.05;3.55;;;7.30;80.90;;;;;;5102367;28;20119;-73
2021/03/01 08:23:07;;;;;;;68.32;2.72;;;7.30;81.10;;;;;;5099433;28;20028;-78
2021/03/01 08:25:42;;;;;;;91.68;3.08;;;7.30;81.10;;;;;;5102649;28;20109;-75
2021/03/01 08:28:08;;;;;;;79.57;2.80;;;7.30;81.10;;;;;;5095572;28;20368;-76
2021/03/01 08:30:37;;;;;;;71.22;2.10;;;7.30;81.10;;;;;;5096349;28;20097;-74
2021/03/01 08:33:09;;;;;;;49.67;2.08;;;7.30;81.00;;;;;;5098912;28;20023;-78
2021/03/01 08:35:42;;;;;;;45.03;1.80;;;7.30;81.00;;;;;;5094919;28;20043;-77
2021/03/01 08:38:10;;;;;;;42.08;1.63;;;7.30;80.90;;;;;;5093024;28;20036;-77
2021/03/01 08:40:36;;;;;;;97.43;2.88;;;7.30;80.80;;;;;;5092982;28;20043;-76
2021/03/01 08:43:05;;;;;;;63.47;2.45;;;7.30;80.80;;;;;;5091568;28;20060;-77
2021/03/01 08:45:37;;;;;;;46.33;1.80;;;7.20;80.80;;;;;;5099480;28;20081;-78
2021/03/01 08:48:08;;;;;;;13.20;1.92;;;7.30;80.90;;;;;;5097333;28;20085;-78
2021/03/01 08:50:38;;;;;;;56.65;2.30;;;7.30;81.00;;;;;;5091836;28;20039;-78
2021/03/01 08:53:05;;;;;;;82.55;2.85;;;7.30;81.20;;;;;;5091091;28;20071;-78
2021/03/01 08:55:32;;;;;;;85.03;3.63;;;7.30;81.10;;;;;;5073554;28;20106;-77
2021/03/01 08:58:03;;;;;;;77.10;3.25;;;7.30;81.00;;;;;;5091649;28;20064;-77
2021/03/01 09:00:33;;;;;;;26.17;2.10;;;7.40;81.00;;;;;;5091827;28;20048;-76
2021/03/01 09:03:12;;;;;;;38.30;2.83;;;7.40;81.00;;;;;;5090666;28;20019;-77
2021/03/01 09:05:38;;;;;;;48.97;2.75;;;7.50;81.20;;;;;;5091697;28;20035;-76
2021/03/01 09:08:05;;;;;;;73.32;3.40;;;7.50;81.10;;;;;;5090419;28;20044;-76
2021/03/01 09:10:44;;;;;;;42.78;2.60;;;7.50;80.90;;;;;;5090810;28;20032;-76
2021/03/01 09:13:16;;;;;;;30.20;2.60;;;7.60;80.90;;;;;;5091710;28;20039;-79
2021/03/01 09:15:43;;;;;;;26.90;2.45;;;7.60;80.90;;;;;;5086930;28;20047;-79
2021/03/01 09:18:09;;;;;;;11.02;2.30;;;7.70;81.10;;;;;;5102040;28;20032;-71
2021/03/01 09:20:47;;;;;;;41.70;2.97;;;7.70;81.10;;;;;;5097109;28;20031;-80
2021/03/01 09:23:14;;;;;;;35.70;3.45;;;7.70;81.00;;;;;;5080756;28;20058;-77
2021/03/01 09:25:39;;;;;;;60.63;3.92;;;7.70;81.00;;;;;;5089423;28;20028;-78
2021/03/01 09:28:07;;;;;;;85.10;4.68;;;7.70;81.00;;;;;;5091126;28;20038;-78
2021/03/01 09:30:34;;;;;;;76.95;5.10;;;7.70;81.00;;;;;;5088551;28;20052;-78
2021/03/01 09:33:06;;;;;;;41.05;4.88;;;7.80;81.00;;;;;;5088423;28;20032;-77
2021/03/01 09:35:35;;;;;;;37.28;4.78;;;7.90;81.00;;;;;;5087110;28;20040;-73
2021/03/01 09:38:02;;;;;;;49.33;6.07;;;7.90;80.90;;;;;;5083228;28;20037;-74
2021/03/01 09:40:29;;;;;;;40.63;5.38;;;7.90;81.00;;;;;;5091234;28;20060;-74
2021/03/01 09:43:02;;;;;;;64.70;7.60;;;7.90;81.00;;;;;;5090172;28;20032;-78
2021/03/01 09:45:31;;;;;;;63.55;8.85;;;7.90;80.90;;;;;;5089261;28;20039;-77
2021/03/01 09:47:57;;;;;;;103.07;11.15;;;8.00;81.00;;;;;;5089333;28;20059;-78
2021/03/01 09:50:24;;;;;;;112.88;13.18;;;8.00;81.10;;;;;;5091669;28;20079;-77
2021/03/01 09:52:50;;;;;;;48.28;12.75;;;7.90;81.30;;;;;;5092271;28;20061;-78
2021/03/01 09:55:19;;;;;;;82.70;11.35;;;8.00;81.40;;;;;;5091251;28;20074;-76
2021/03/01 09:57:45;;;;;;;88.50;15.38;;;8.00;81.40;;;;;;5094696;28;20040;-78
2021/03/01 10:00:22;;;;;;;121.93;17.10;;;8.00;81.40;;;;;;5086480;28;20039;-77
2021/03/01 10:03:13;;;;;;;122.50;18.23;;;8.00;81.70;;;;;;5093710;28;20411;-77
2021/03/01 10:05:47;;;;;;;60.47;14.55;;;8.00;81.60;;;;;;5086365;28;20031;-77
2021/03/01 10:08:24;;;;;;;78.13;16.58;;;8.00;81.60;;;;;;5090305;28;20107;-77
2021/03/01 10:10:52;;;;;;;61.88;16.40;;;8.10;81.70;;;;;;5091641;28;20060;-77
2021/03/01 10:13:34;;;;;;;65.38;15.88;;;8.10;81.50;;;;;;5089368;28;20379;-77
2021/03/01 10:16:05;;;;;;;55.65;15.27;;;8.10;81.60;;;;;;5088770;28;20063;-77
2021/03/01 10:18:32;;;;;;;46.70;12.88;;;8.10;81.60;;;;;;5095024;28;20024;-77
2021/03/01 10:21:02;;;;;;;57.53;13.75;;;8.10;81.60;;;;;;5089905;28;20029;-77
2021/03/01 10:23:31;;;;;;;53.88;12.50;;;8.10;81.70;;;;;;5089898;28;20388;-77
2021/03/01 10:26:16;;;;;;;54.35;11.93;;;8.10;81.60;;;;;;5091563;28;20024;-73
2021/03/01 10:28:59;;;;;;;33.95;11.63;;;8.10;81.50;;;;;;5090617;28;20028;-75
2021/03/01 10:31:39;;;;;;;69.30;11.50;;;8.10;81.60;;;;;;5091464;28;20392;-74
2021/03/01 10:34:07;;;;;;;68.63;13.75;;;8.10;81.60;;;;;;5090776;28;20040;-75
2021/03/01 10:36:48;;;;;;;38.83;14.02;;;8.20;81.60;;;;;;5091798;28;20077;-77
2021/03/01 10:39:29;;;;;;;96.28;23.30;;;8.30;81.70;;;;;;5092884;28;20391;-76
2021/03/01 10:42:03;;;;;;;60.42;21.17;;;8.20;81.80;;;;;;5094298;28;20073;-77
2021/03/01 10:44:40;;;;;;;72.18;21.58;;;8.30;81.90;;;;;;5095181;28;20114;-76
2021/03/01 10:47:16;;;;;;;56.03;18.08;;;8.30;81.90;;;;;;5094094;28;20032;-74
2021/03/01 10:49:44;;;;;;;70.57;19.38;;;8.30;81.80;;;;;;5095011;28;20035;-74
2021/03/01 10:52:10;;;;;;;47.95;15.02;;;8.30;81.60;;;;;;5094835;28;20434;-73
2021/03/01 10:54:40;;;;;;;54.17;20.00;;;8.40;81.60;;;;;;5094160;28;20067;-77
2021/03/01 10:57:06;;;;;;;61.53;20.00;;;8.40;81.40;;;;;;5103428;28;20132;-77
2021/03/01 10:59:33;;;;;;;74.82;22.65;;;8.50;81.40;;;;;;5104363;28;20036;-77
2021/03/01 11:01:58;;;;;;;52.25;17.58;;;8.50;81.30;;;;;;5100001;28;20098;-76
2021/03/01 11:04:24;;;;;;;42.75;13.93;;;8.50;81.20;;;;;;5084849;28;20059;-77
2021/03/01 11:06:51;;;;;;;46.65;16.20;;;8.50;81.10;;;;;;5090087;28;20031;-75
2021/03/01 11:09:21;;;;;;;42.58;15.63;;;8.60;81.10;;;;;;5092984;28;20028;-75
2021/03/01 11:11:48;;;;;;;36.72;13.90;;;8.60;81.10;;;;;;5095178;28;20449;-78
2021/03/01 11:14:16;;;;;;;45.28;15.93;;;8.60;81.00;;;;;;5097633;28;20039;-77
2021/03/01 11:16:42;;;;;;;46.72;13.98;;;8.60;81.10;;;;;;5098319;28;20028;-75
2021/03/01 11:19:12;;;;;;;40.95;14.32;;;8.60;80.90;;;;;;5100688;28;20143;-73
2021/03/01 11:21:38;;;;;;;41.97;14.07;;;8.70;80.80;;;;;;5107462;28;20031;-76
2021/03/01 11:24:06;;;;;;;33.17;11.15;;;8.70;80.80;;;;;;5093839;28;20032;-73
2021/03/01 11:26:32;;;;;;;30.02;10.65;;;8.70;80.90;;;;;;5090758;28;20028;-75
2021/03/01 11:28:58;;;;;;;33.38;10.80;;;8.70;80.80;;;;;;5093932;28;20483;-77
2021/03/01 11:31:25;;;;;;;38.85;12.30;;;8.80;80.80;;;;;;5092999;28;20062;-78
2021/03/01 11:33:51;;;;;;;32.95;11.48;;;8.80;81.50;;;;;;5098440;28;20017;-78
2021/03/01 11:36:18;;;;;;;31.27;11.48;;;8.80;80.80;;;;;;5102315;28;20071;-79
2021/03/01 11:38:44;;;;;;;42.90;15.02;;;8.90;80.70;;;;;;5087276;28;20062;-78
2021/03/01 11:41:14;;;;;;;31.42;9.70;;;8.90;80.60;;;;;;5090277;28;20024;-76
2021/03/01 11:43:40;;;;;;;35.50;12.82;;;8.90;80.60;;;;;;5093052;28;20085;-78
2021/03/01 11:46:05;;;;;;;39.53;13.77;;;8.90;80.50;;;;;;5091469;28;20371;-78
2021/03/01 11:48:31;;;;;;;44.33;17.15;;;8.90;80.40;;;;;;5094616;28;20054;-79
2021/03/01 11:50:57;;;;;;;35.05;11.82;;;9.00;80.50;;;;;;5095088;28;20027;-77
2021/03/01 11:53:22;;;;;;;42.20;16.95;;;9.00;80.30;;;;;;5092120;28;20073;-77
2021/03/01 11:55:48;;;;;;;41.33;15.55;;;9.00;80.20;;;;;;5091924;28;20040;-75
2021/03/01 11:58:14;;;;;;;41.88;15.70;;;9.00;80.10;;;;;;5096968;28;20035;-77
2021/03/01 12:00:41;;;;;;;44.58;15.38;;;9.00;80.00;;;;;;5096499;28;20468;-77
2021/03/01 12:03:11;;;;;;;35.10;14.63;;;9.00;80.00;;;;;;5093462;28;20032;-77
2021/03/01 12:05:40;;;;;;;42.60;15.40;;;9.10;80.30;;;;;;5091836;28;20047;-77
2021/03/01 12:08:07;;;;;;;37.72;12.63;;;9.00;79.90;;;;;;5093316;28;20036;-77
2021/03/01 12:10:33;;;;;;;31.02;11.55;;;9.00;80.00;;;;;;5089152;28;20154;-78
2021/03/01 12:13:00;;;;;;;38.40;14.90;;;9.10;80.20;;;;;;5097182;28;20036;-77
2021/03/01 12:15:26;;;;;;;28.23;11.60;;;9.10;80.10;;;;;;5095162;28;20032;-77
2021/03/01 12:17:51;;;;;;;35.42;14.85;;;9.10;80.00;;;;;;5095371;28;20501;-78
2021/03/01 12:20:18;;;;;;;32.30;12.05;;;9.10;79.80;;;;;;5092268;28;20039;-77
2021/03/01 12:22:43;;;;;;;35.38;14.38;;;9.10;80.00;;;;;;5094726;28;20533;-77
2021/03/01 12:25:09;;;;;;;30.27;14.20;;;9.20;79.90;;;;;;5092713;28;20058;-78
2021/03/01 12:27:35;;;;;;;23.40;10.02;;;9.20;80.10;;;;;;5091794;28;20842;-79
2021/03/01 12:30:02;;;;;;;13.52;6.03;;;9.20;80.00;;;;;;5095042;28;20551;-77
2021/03/01 12:32:28;;;;;;;23.70;12.63;;;9.20;79.90;;;;;;5091139;28;20115;-77
2021/03/01 12:34:55;;;;;;;27.15;10.18;;;9.20;79.70;;;;;;5096604;28;20119;-78
2021/03/01 12:37:20;;;;;;;18.23;6.57;;;9.20;79.60;;;;;;5091886;28;20023;-77
2021/03/01 12:39:46;;;;;;;10.27;4.00;;;9.20;79.80;;;;;;5091896;28;20353;-78
2021/03/01 12:42:12;;;;;;;8.30;4.03;;;9.20;79.70;;;;;;5090586;28;20063;-77
2021/03/01 12:44:38;;;;;;;6.15;3.00;;;9.20;79.60;;;;;;5092739;28;20056;-78
2021/03/01 12:47:04;;;;;;;3.80;2.33;;;9.20;79.40;;;;;;5092759;28;20472;-77
2021/03/01 12:49:30;;;;;;;4.85;2.50;;;9.20;79.60;;;;;;5091464;28;20383;-77